sensor_id;sensor_type;location;lat;lon;timestamp;P1;durP1;ratioP1;P2;durP2;ratioP2
68178;SDS011;69812;42.632;23.440;2023-06-14T00:00:32;19.75;;;9.98;;
68178;SDS011;69812;42.632;23.440;2023-06-14T00:02:59;19.13;;;9.88;;
68178;SDS011;69812;42.632;23.440;2023-06-14T00:05:25;20.85;;;10.48;;
68178;SDS011;69812;42.632;23.440;2023-06-14T00:07:56;19.75;;;10.02;;
68178;SDS011;69812;42.632;23.440;2023-06-14T00:10:24;20.40;;;10.18;;
68178;SDS011;69812;42.632;23.440;2023-06-14T00:13:06;16.95;;;8.88;;
68178;SDS011;69812;42.632;23.440;2023-06-14T00:15:35;18.00;;;9.50;;
68178;SDS011;69812;42.632;23.440;2023-06-14T00:18:01;21.10;;;10.57;;
68178;SDS011;69812;42.632;23.440;2023-06-14T00:20:31;20.25;;;10.00;;
68178;SDS011;69812;42.632;23.440;2023-06-14T00:23:12;17.80;;;10.55;;
68178;SDS011;69812;42.632;23.440;2023-06-14T00:25:41;21.23;;;10.00;;
68178;SDS011;69812;42.632;23.440;2023-06-14T00:28:06;22.02;;;10.07;;
68178;SDS011;69812;42.632;23.440;2023-06-14T00:30:31;20.30;;;9.90;;
68178;SDS011;69812;42.632;23.440;2023-06-14T00:32:57;23.02;;;10.15;;
68178;SDS011;69812;42.632;23.440;2023-06-14T00:35:23;18.48;;;9.43;;
68178;SDS011;69812;42.632;23.440;2023-06-14T00:37:51;22.10;;;10.50;;
68178;SDS011;69812;42.632;23.440;2023-06-14T00:40:19;17.60;;;10.00;;
68178;SDS011;69812;42.632;23.440;2023-06-14T00:42:45;18.23;;;10.05;;
68178;SDS011;69812;42.632;23.440;2023-06-14T00:45:10;20.63;;;10.73;;
68178;SDS011;69812;42.632;23.440;2023-06-14T00:47:35;22.88;;;10.20;;
68178;SDS011;69812;42.632;23.440;2023-06-14T00:50:12;21.35;;;10.80;;
68178;SDS011;69812;42.632;23.440;2023-06-14T00:52:38;22.92;;;10.65;;
68178;SDS011;69812;42.632;23.440;2023-06-14T00:55:05;18.35;;;9.82;;
68178;SDS011;69812;42.632;23.440;2023-06-14T00:57:31;20.55;;;10.65;;
68178;SDS011;69812;42.632;23.440;2023-06-14T00:59:56;20.75;;;10.40;;
68178;SDS011;69812;42.632;23.440;2023-06-14T01:02:22;18.10;;;9.85;;
68178;SDS011;69812;42.632;23.440;2023-06-14T01:07:21;15.80;;;8.60;;
68178;SDS011;69812;42.632;23.440;2023-06-14T01:15:35;19.88;;;10.13;;
68178;SDS011;69812;42.632;23.440;2023-06-14T01:18:03;16.70;;;10.55;;
68178;SDS011;69812;42.632;23.440;2023-06-14T01:20:29;19.13;;;10.50;;
68178;SDS011;69812;42.632;23.440;2023-06-14T01:22:57;18.25;;;10.13;;
68178;SDS011;69812;42.632;23.440;2023-06-14T01:25:23;19.65;;;10.48;;
68178;SDS011;69812;42.632;23.440;2023-06-14T01:27:50;21.42;;;10.85;;
68178;SDS011;69812;42.632;23.440;2023-06-14T01:30:29;19.52;;;9.82;;
68178;SDS011;69812;42.632;23.440;2023-06-14T01:32:58;17.17;;;9.65;;
68178;SDS011;69812;42.632;23.440;2023-06-14T01:35:24;19.08;;;9.68;;
68178;SDS011;69812;42.632;23.440;2023-06-14T01:37:49;19.88;;;10.40;;
68178;SDS011;69812;42.632;23.440;2023-06-14T01:40:24;21.45;;;10.40;;
68178;SDS011;69812;42.632;23.440;2023-06-14T01:42:50;19.85;;;9.32;;
68178;SDS011;69812;42.632;23.440;2023-06-14T01:47:43;19.27;;;9.45;;
68178;SDS011;69812;42.632;23.440;2023-06-14T01:50:10;17.73;;;8.88;;
68178;SDS011;69812;42.632;23.440;2023-06-14T01:52:36;17.50;;;9.35;;
68178;SDS011;69812;42.632;23.440;2023-06-14T01:55:02;19.17;;;9.77;;
68178;SDS011;69812;42.632;23.440;2023-06-14T01:57:28;21.55;;;9.35;;
68178;SDS011;69812;42.632;23.440;2023-06-14T01:59:54;16.77;;;9.13;;
68178;SDS011;69812;42.632;23.440;2023-06-14T02:02:22;21.48;;;9.30;;
68178;SDS011;69812;42.632;23.440;2023-06-14T02:04:48;16.33;;;9.05;;
68178;SDS011;69812;42.632;23.440;2023-06-14T02:07:13;18.90;;;8.82;;
68178;SDS011;69812;42.632;23.440;2023-06-14T02:09:40;18.15;;;9.65;;
68178;SDS011;69812;42.632;23.440;2023-06-14T02:12:06;17.20;;;8.98;;
68178;SDS011;69812;42.632;23.440;2023-06-14T02:14:37;19.88;;;9.48;;
68178;SDS011;69812;42.632;23.440;2023-06-14T02:17:03;20.80;;;10.63;;
68178;SDS011;69812;42.632;23.440;2023-06-14T02:19:29;20.08;;;10.23;;
68178;SDS011;69812;42.632;23.440;2023-06-14T02:21:54;18.23;;;9.32;;
68178;SDS011;69812;42.632;23.440;2023-06-14T02:24:19;21.67;;;10.73;;
68178;SDS011;69812;42.632;23.440;2023-06-14T02:26:45;19.13;;;9.85;;
68178;SDS011;69812;42.632;23.440;2023-06-14T02:29:10;21.35;;;9.80;;
68178;SDS011;69812;42.632;23.440;2023-06-14T02:31:40;17.17;;;9.55;;
68178;SDS011;69812;42.632;23.440;2023-06-14T02:34:08;21.15;;;9.70;;
68178;SDS011;69812;42.632;23.440;2023-06-14T02:36:34;20.42;;;10.43;;
68178;SDS011;69812;42.632;23.440;2023-06-14T02:39:00;17.73;;;9.82;;
68178;SDS011;69812;42.632;23.440;2023-06-14T02:41:26;18.48;;;9.23;;
68178;SDS011;69812;42.632;23.440;2023-06-14T02:43:52;18.00;;;9.82;;
68178;SDS011;69812;42.632;23.440;2023-06-14T02:46:21;17.50;;;9.60;;
68178;SDS011;69812;42.632;23.440;2023-06-14T02:48:46;18.90;;;9.88;;
68178;SDS011;69812;42.632;23.440;2023-06-14T02:51:12;17.83;;;9.43;;
68178;SDS011;69812;42.632;23.440;2023-06-14T02:53:37;18.05;;;8.68;;
68178;SDS011;69812;42.632;23.440;2023-06-14T02:56:03;17.13;;;10.10;;
68178;SDS011;69812;42.632;23.440;2023-06-14T02:58:31;18.63;;;8.75;;
68178;SDS011;69812;42.632;23.440;2023-06-14T03:00:59;18.60;;;9.75;;
68178;SDS011;69812;42.632;23.440;2023-06-14T03:03:28;15.95;;;8.95;;
68178;SDS011;69812;42.632;23.440;2023-06-14T03:05:54;16.55;;;9.02;;
68178;SDS011;69812;42.632;23.440;2023-06-14T03:08:19;16.08;;;9.27;;
68178;SDS011;69812;42.632;23.440;2023-06-14T03:10:45;15.50;;;9.10;;
68178;SDS011;69812;42.632;23.440;2023-06-14T03:13:12;12.65;;;8.60;;
68178;SDS011;69812;42.632;23.440;2023-06-14T03:15:38;15.95;;;8.98;;
68178;SDS011;69812;42.632;23.440;2023-06-14T03:18:07;16.73;;;8.80;;
68178;SDS011;69812;42.632;23.440;2023-06-14T03:20:34;15.25;;;8.95;;
68178;SDS011;69812;42.632;23.440;2023-06-14T03:23:01;14.85;;;9.20;;
68178;SDS011;69812;42.632;23.440;2023-06-14T03:27:56;14.73;;;8.30;;
68178;SDS011;69812;42.632;23.440;2023-06-14T03:30:22;14.73;;;7.90;;
68178;SDS011;69812;42.632;23.440;2023-06-14T03:32:47;14.95;;;8.23;;
68178;SDS011;69812;42.632;23.440;2023-06-14T03:35:13;19.23;;;9.25;;
68178;SDS011;69812;42.632;23.440;2023-06-14T03:37:45;16.17;;;8.07;;
68178;SDS011;69812;42.632;23.440;2023-06-14T03:40:12;13.68;;;8.40;;
68178;SDS011;69812;42.632;23.440;2023-06-14T03:42:38;12.48;;;7.40;;
68178;SDS011;69812;42.632;23.440;2023-06-14T03:45:04;12.90;;;7.43;;
68178;SDS011;69812;42.632;23.440;2023-06-14T03:47:31;14.10;;;7.68;;
68178;SDS011;69812;42.632;23.440;2023-06-14T03:49:59;12.57;;;8.55;;
68178;SDS011;69812;42.632;23.440;2023-06-14T03:52:27;13.80;;;8.55;;
68178;SDS011;69812;42.632;23.440;2023-06-14T03:54:53;15.13;;;8.70;;
68178;SDS011;69812;42.632;23.440;2023-06-14T03:57:18;14.38;;;7.75;;
68178;SDS011;69812;42.632;23.440;2023-06-14T03:59:45;14.93;;;8.13;;
68178;SDS011;69812;42.632;23.440;2023-06-14T04:02:16;15.77;;;8.73;;
68178;SDS011;69812;42.632;23.440;2023-06-14T04:04:42;13.38;;;8.20;;
68178;SDS011;69812;42.632;23.440;2023-06-14T04:07:14;13.00;;;8.73;;
68178;SDS011;69812;42.632;23.440;2023-06-14T04:09:44;13.30;;;7.72;;
68178;SDS011;69812;42.632;23.440;2023-06-14T04:12:10;13.20;;;8.13;;
68178;SDS011;69812;42.632;23.440;2023-06-14T04:14:57;11.73;;;8.15;;
68178;SDS011;69812;42.632;23.440;2023-06-14T04:17:22;12.98;;;7.95;;
68178;SDS011;69812;42.632;23.440;2023-06-14T04:19:47;12.43;;;7.30;;
68178;SDS011;69812;42.632;23.440;2023-06-14T04:22:13;12.02;;;7.93;;
68178;SDS011;69812;42.632;23.440;2023-06-14T04:24:43;14.02;;;8.25;;
68178;SDS011;69812;42.632;23.440;2023-06-14T04:27:09;13.88;;;8.07;;
68178;SDS011;69812;42.632;23.440;2023-06-14T04:29:34;13.95;;;8.52;;
68178;SDS011;69812;42.632;23.440;2023-06-14T04:32:00;13.73;;;8.20;;
68178;SDS011;69812;42.632;23.440;2023-06-14T04:34:26;14.38;;;7.88;;
68178;SDS011;69812;42.632;23.440;2023-06-14T04:36:58;12.32;;;7.50;;
68178;SDS011;69812;42.632;23.440;2023-06-14T04:39:26;11.13;;;7.32;;
68178;SDS011;69812;42.632;23.440;2023-06-14T04:41:52;11.80;;;6.82;;
68178;SDS011;69812;42.632;23.440;2023-06-14T04:44:22;14.18;;;7.85;;
68178;SDS011;69812;42.632;23.440;2023-06-14T04:46:55;10.93;;;7.03;;
68178;SDS011;69812;42.632;23.440;2023-06-14T04:49:21;13.70;;;8.63;;
68178;SDS011;69812;42.632;23.440;2023-06-14T04:51:48;11.23;;;7.85;;
68178;SDS011;69812;42.632;23.440;2023-06-14T04:54:22;12.77;;;7.07;;
68178;SDS011;69812;42.632;23.440;2023-06-14T04:56:50;9.18;;;7.15;;
68178;SDS011;69812;42.632;23.440;2023-06-14T04:59:16;10.45;;;8.35;;
68178;SDS011;69812;42.632;23.440;2023-06-14T05:01:42;10.13;;;6.90;;
68178;SDS011;69812;42.632;23.440;2023-06-14T05:04:17;12.48;;;8.23;;
68178;SDS011;69812;42.632;23.440;2023-06-14T05:06:46;13.77;;;9.02;;
68178;SDS011;69812;42.632;23.440;2023-06-14T05:09:28;13.63;;;7.88;;
68178;SDS011;69812;42.632;23.440;2023-06-14T05:11:54;13.23;;;9.52;;
68178;SDS011;69812;42.632;23.440;2023-06-14T05:14:19;16.23;;;10.50;;
68178;SDS011;69812;42.632;23.440;2023-06-14T05:16:45;14.25;;;9.52;;
68178;SDS011;69812;42.632;23.440;2023-06-14T05:19:11;14.48;;;9.75;;
68178;SDS011;69812;42.632;23.440;2023-06-14T05:21:36;14.32;;;9.90;;
68178;SDS011;69812;42.632;23.440;2023-06-14T05:24:02;14.52;;;9.68;;
68178;SDS011;69812;42.632;23.440;2023-06-14T05:26:27;13.82;;;9.63;;
68178;SDS011;69812;42.632;23.440;2023-06-14T05:28:56;14.68;;;10.20;;
68178;SDS011;69812;42.632;23.440;2023-06-14T05:31:25;15.68;;;9.90;;
68178;SDS011;69812;42.632;23.440;2023-06-14T05:33:50;16.38;;;10.18;;
68178;SDS011;69812;42.632;23.440;2023-06-14T05:36:16;15.75;;;10.45;;
68178;SDS011;69812;42.632;23.440;2023-06-14T05:38:51;17.25;;;10.48;;
68178;SDS011;69812;42.632;23.440;2023-06-14T05:41:22;13.98;;;9.30;;
68178;SDS011;69812;42.632;23.440;2023-06-14T05:43:48;16.63;;;11.10;;
68178;SDS011;69812;42.632;23.440;2023-06-14T05:46:14;16.00;;;10.73;;
68178;SDS011;69812;42.632;23.440;2023-06-14T05:48:40;16.48;;;10.50;;
68178;SDS011;69812;42.632;23.440;2023-06-14T05:51:07;15.60;;;12.18;;
68178;SDS011;69812;42.632;23.440;2023-06-14T05:53:33;19.85;;;11.70;;
68178;SDS011;69812;42.632;23.440;2023-06-14T05:55:59;20.20;;;11.35;;
68178;SDS011;69812;42.632;23.440;2023-06-14T05:58:27;19.00;;;11.85;;
68178;SDS011;69812;42.632;23.440;2023-06-14T06:00:52;17.02;;;11.57;;
68178;SDS011;69812;42.632;23.440;2023-06-14T06:03:18;17.15;;;12.27;;
68178;SDS011;69812;42.632;23.440;2023-06-14T06:05:47;18.70;;;12.93;;
68178;SDS011;69812;42.632;23.440;2023-06-14T06:08:13;17.48;;;12.20;;
68178;SDS011;69812;42.632;23.440;2023-06-14T06:10:38;17.67;;;12.98;;
68178;SDS011;69812;42.632;23.440;2023-06-14T06:13:04;20.33;;;13.73;;
68178;SDS011;69812;42.632;23.440;2023-06-14T06:15:29;18.70;;;12.95;;
68178;SDS011;69812;42.632;23.440;2023-06-14T06:17:57;17.85;;;12.27;;
68178;SDS011;69812;42.632;23.440;2023-06-14T06:20:23;17.08;;;12.13;;
68178;SDS011;69812;42.632;23.440;2023-06-14T06:22:52;18.92;;;12.48;;
68178;SDS011;69812;42.632;23.440;2023-06-14T06:25:18;16.40;;;11.80;;
68178;SDS011;69812;42.632;23.440;2023-06-14T06:27:44;16.73;;;12.00;;
68178;SDS011;69812;42.632;23.440;2023-06-14T06:30:10;15.38;;;11.93;;
68178;SDS011;69812;42.632;23.440;2023-06-14T06:32:36;17.88;;;12.18;;
68178;SDS011;69812;42.632;23.440;2023-06-14T06:35:01;15.73;;;12.05;;
68178;SDS011;69812;42.632;23.440;2023-06-14T06:37:26;14.35;;;11.20;;
68178;SDS011;69812;42.632;23.440;2023-06-14T06:39:52;15.70;;;12.82;;
68178;SDS011;69812;42.632;23.440;2023-06-14T06:42:17;16.88;;;12.73;;
68178;SDS011;69812;42.632;23.440;2023-06-14T06:44:43;14.45;;;12.70;;
68178;SDS011;69812;42.632;23.440;2023-06-14T06:47:08;17.52;;;13.60;;
68178;SDS011;69812;42.632;23.440;2023-06-14T06:49:34;15.18;;;12.75;;
68178;SDS011;69812;42.632;23.440;2023-06-14T06:52:03;16.98;;;13.07;;
68178;SDS011;69812;42.632;23.440;2023-06-14T06:54:30;16.98;;;13.52;;
68178;SDS011;69812;42.632;23.440;2023-06-14T06:56:56;16.13;;;13.40;;
68178;SDS011;69812;42.632;23.440;2023-06-14T06:59:21;17.45;;;13.70;;
68178;SDS011;69812;42.632;23.440;2023-06-14T07:01:46;17.45;;;13.43;;
68178;SDS011;69812;42.632;23.440;2023-06-14T07:04:12;16.60;;;12.20;;
68178;SDS011;69812;42.632;23.440;2023-06-14T07:06:38;16.85;;;12.50;;
68178;SDS011;69812;42.632;23.440;2023-06-14T07:09:03;15.95;;;12.40;;
68178;SDS011;69812;42.632;23.440;2023-06-14T07:11:30;19.75;;;13.35;;
68178;SDS011;69812;42.632;23.440;2023-06-14T07:13:55;17.63;;;12.18;;
68178;SDS011;69812;42.632;23.440;2023-06-14T07:16:21;17.88;;;12.30;;
68178;SDS011;69812;42.632;23.440;2023-06-14T07:18:46;15.82;;;12.48;;
68178;SDS011;69812;42.632;23.440;2023-06-14T07:21:12;15.63;;;12.50;;
68178;SDS011;69812;42.632;23.440;2023-06-14T07:23:37;17.23;;;12.10;;
68178;SDS011;69812;42.632;23.440;2023-06-14T07:26:03;16.58;;;12.52;;
68178;SDS011;69812;42.632;23.440;2023-06-14T07:28:28;20.13;;;12.55;;
68178;SDS011;69812;42.632;23.440;2023-06-14T07:30:53;16.55;;;12.38;;
68178;SDS011;69812;42.632;23.440;2023-06-14T07:33:19;17.50;;;12.25;;
68178;SDS011;69812;42.632;23.440;2023-06-14T07:35:48;16.45;;;13.10;;
68178;SDS011;69812;42.632;23.440;2023-06-14T07:38:14;17.63;;;13.52;;
68178;SDS011;69812;42.632;23.440;2023-06-14T07:40:39;17.23;;;12.93;;
68178;SDS011;69812;42.632;23.440;2023-06-14T07:43:05;15.43;;;12.00;;
68178;SDS011;69812;42.632;23.440;2023-06-14T07:47:56;17.60;;;14.57;;
68178;SDS011;69812;42.632;23.440;2023-06-14T07:50:21;21.35;;;15.00;;
68178;SDS011;69812;42.632;23.440;2023-06-14T07:52:47;16.48;;;13.73;;
68178;SDS011;69812;42.632;23.440;2023-06-14T07:55:13;17.42;;;13.88;;
68178;SDS011;69812;42.632;23.440;2023-06-14T07:57:40;18.88;;;15.73;;
68178;SDS011;69812;42.632;23.440;2023-06-14T08:00:05;20.27;;;16.13;;
68178;SDS011;69812;42.632;23.440;2023-06-14T08:02:35;20.15;;;14.73;;
68178;SDS011;69812;42.632;23.440;2023-06-14T08:05:00;16.92;;;13.32;;
68178;SDS011;69812;42.632;23.440;2023-06-14T08:07:26;23.33;;;14.63;;
68178;SDS011;69812;42.632;23.440;2023-06-14T08:09:51;19.00;;;14.00;;
68178;SDS011;69812;42.632;23.440;2023-06-14T08:14:49;17.27;;;12.38;;
68178;SDS011;69812;42.632;23.440;2023-06-14T08:17:15;18.15;;;13.07;;
68178;SDS011;69812;42.632;23.440;2023-06-14T08:19:40;16.63;;;11.55;;
68178;SDS011;69812;42.632;23.440;2023-06-14T08:22:06;18.17;;;13.32;;
68178;SDS011;69812;42.632;23.440;2023-06-14T08:24:31;19.75;;;13.05;;
68178;SDS011;69812;42.632;23.440;2023-06-14T08:26:58;18.45;;;13.40;;
68178;SDS011;69812;42.632;23.440;2023-06-14T08:29:26;19.35;;;12.98;;
68178;SDS011;69812;42.632;23.440;2023-06-14T08:31:54;24.50;;;12.32;;
68178;SDS011;69812;42.632;23.440;2023-06-14T08:37:41;18.67;;;11.73;;
68178;SDS011;69812;42.632;23.440;2023-06-14T08:40:25;16.23;;;12.07;;
68178;SDS011;69812;42.632;23.440;2023-06-14T08:42:54;16.25;;;12.02;;
68178;SDS011;69812;42.632;23.440;2023-06-14T08:45:26;15.07;;;10.73;;
68178;SDS011;69812;42.632;23.440;2023-06-14T08:48:01;16.15;;;10.80;;
68178;SDS011;69812;42.632;23.440;2023-06-14T08:50:49;16.98;;;10.88;;
68178;SDS011;69812;42.632;23.440;2023-06-14T08:53:14;12.60;;;8.75;;
68178;SDS011;69812;42.632;23.440;2023-06-14T08:55:44;16.45;;;9.73;;
68178;SDS011;69812;42.632;23.440;2023-06-14T08:58:12;12.95;;;10.02;;
68178;SDS011;69812;42.632;23.440;2023-06-14T09:00:39;13.57;;;9.68;;
68178;SDS011;69812;42.632;23.440;2023-06-14T09:03:07;13.55;;;9.77;;
68178;SDS011;69812;42.632;23.440;2023-06-14T09:05:38;13.20;;;9.40;;
68178;SDS011;69812;42.632;23.440;2023-06-14T09:08:03;16.15;;;10.15;;
68178;SDS011;69812;42.632;23.440;2023-06-14T09:10:32;12.00;;;8.60;;
68178;SDS011;69812;42.632;23.440;2023-06-14T09:13:02;14.10;;;8.90;;
68178;SDS011;69812;42.632;23.440;2023-06-14T09:15:29;14.80;;;9.45;;
68178;SDS011;69812;42.632;23.440;2023-06-14T09:17:56;10.77;;;8.35;;
68178;SDS011;69812;42.632;23.440;2023-06-14T09:20:23;12.40;;;8.80;;
68178;SDS011;69812;42.632;23.440;2023-06-14T09:22:49;12.48;;;8.80;;
68178;SDS011;69812;42.632;23.440;2023-06-14T09:25:17;11.27;;;8.45;;
68178;SDS011;69812;42.632;23.440;2023-06-14T09:27:43;11.95;;;8.52;;
68178;SDS011;69812;42.632;23.440;2023-06-14T09:30:12;12.13;;;8.98;;
68178;SDS011;69812;42.632;23.440;2023-06-14T09:32:38;12.32;;;9.75;;
68178;SDS011;69812;42.632;23.440;2023-06-14T09:35:08;12.32;;;8.45;;
68178;SDS011;69812;42.632;23.440;2023-06-14T09:37:34;13.25;;;9.10;;
68178;SDS011;69812;42.632;23.440;2023-06-14T09:40:00;12.15;;;8.50;;
68178;SDS011;69812;42.632;23.440;2023-06-14T09:42:29;14.20;;;8.43;;
68178;SDS011;69812;42.632;23.440;2023-06-14T09:44:56;10.90;;;8.32;;
68178;SDS011;69812;42.632;23.440;2023-06-14T09:47:22;8.88;;;7.13;;
68178;SDS011;69812;42.632;23.440;2023-06-14T09:49:49;9.80;;;7.55;;
68178;SDS011;69812;42.632;23.440;2023-06-14T09:54:45;9.77;;;6.65;;
68178;SDS011;69812;42.632;23.440;2023-06-14T09:57:12;10.38;;;8.43;;
68178;SDS011;69812;42.632;23.440;2023-06-14T09:59:42;10.27;;;8.45;;
68178;SDS011;69812;42.632;23.440;2023-06-14T10:02:53;11.25;;;8.90;;
68178;SDS011;69812;42.632;23.440;2023-06-14T10:05:08;10.60;;;8.88;;
68178;SDS011;69812;42.632;23.440;2023-06-14T10:07:44;10.55;;;8.20;;
68178;SDS011;69812;42.632;23.440;2023-06-14T10:10:19;10.38;;;8.30;;
68178;SDS011;69812;42.632;23.440;2023-06-14T10:12:45;9.68;;;7.88;;
68178;SDS011;69812;42.632;23.440;2023-06-14T10:15:15;9.05;;;7.10;;
68178;SDS011;69812;42.632;23.440;2023-06-14T10:18:08;8.27;;;7.30;;
68178;SDS011;69812;42.632;23.440;2023-06-14T10:20:41;10.65;;;7.80;;
68178;SDS011;69812;42.632;23.440;2023-06-14T10:23:14;9.75;;;7.85;;
68178;SDS011;69812;42.632;23.440;2023-06-14T10:25:43;9.05;;;7.72;;
68178;SDS011;69812;42.632;23.440;2023-06-14T10:33:47;9.07;;;8.13;;
68178;SDS011;69812;42.632;23.440;2023-06-14T10:41:39;9.30;;;6.97;;
68178;SDS011;69812;42.632;23.440;2023-06-14T10:46:39;7.97;;;6.75;;
68178;SDS011;69812;42.632;23.440;2023-06-14T10:49:06;7.38;;;6.57;;
68178;SDS011;69812;42.632;23.440;2023-06-14T10:51:38;8.18;;;6.88;;
68178;SDS011;69812;42.632;23.440;2023-06-14T10:54:15;8.23;;;6.75;;
68178;SDS011;69812;42.632;23.440;2023-06-14T10:56:51;7.40;;;6.10;;
68178;SDS011;69812;42.632;23.440;2023-06-14T10:59:17;7.75;;;6.57;;
68178;SDS011;69812;42.632;23.440;2023-06-14T11:02:39;7.30;;;6.20;;
68178;SDS011;69812;42.632;23.440;2023-06-14T11:05:03;8.23;;;6.13;;
68178;SDS011;69812;42.632;23.440;2023-06-14T11:12:43;6.68;;;5.82;;
68178;SDS011;69812;42.632;23.440;2023-06-14T11:15:13;9.43;;;6.78;;
68178;SDS011;69812;42.632;23.440;2023-06-14T11:17:53;9.73;;;6.63;;
68178;SDS011;69812;42.632;23.440;2023-06-14T11:20:19;7.82;;;6.43;;
68178;SDS011;69812;42.632;23.440;2023-06-14T11:22:44;8.60;;;6.47;;
68178;SDS011;69812;42.632;23.440;2023-06-14T11:25:13;9.52;;;7.15;;
68178;SDS011;69812;42.632;23.440;2023-06-14T11:27:41;7.65;;;6.35;;
68178;SDS011;69812;42.632;23.440;2023-06-14T11:30:08;8.55;;;6.22;;
68178;SDS011;69812;42.632;23.440;2023-06-14T11:32:37;7.63;;;6.38;;
68178;SDS011;69812;42.632;23.440;2023-06-14T11:37:31;8.57;;;6.47;;
68178;SDS011;69812;42.632;23.440;2023-06-14T11:40:06;7.10;;;5.80;;
68178;SDS011;69812;42.632;23.440;2023-06-14T11:42:43;10.32;;;6.53;;
68178;SDS011;69812;42.632;23.440;2023-06-14T11:45:12;7.47;;;6.55;;
68178;SDS011;69812;42.632;23.440;2023-06-14T11:47:38;7.93;;;6.40;;
68178;SDS011;69812;42.632;23.440;2023-06-14T11:50:05;14.95;;;7.05;;
68178;SDS011;69812;42.632;23.440;2023-06-14T11:52:56;9.77;;;5.88;;
68178;SDS011;69812;42.632;23.440;2023-06-14T11:55:22;7.57;;;6.32;;
68178;SDS011;69812;42.632;23.440;2023-06-14T11:57:49;10.18;;;5.75;;
68178;SDS011;69812;42.632;23.440;2023-06-14T12:00:27;7.65;;;6.15;;
68178;SDS011;69812;42.632;23.440;2023-06-14T12:02:54;7.82;;;5.70;;
68178;SDS011;69812;42.632;23.440;2023-06-14T12:05:35;8.27;;;5.85;;
68178;SDS011;69812;42.632;23.440;2023-06-14T12:08:02;6.63;;;5.82;;
68178;SDS011;69812;42.632;23.440;2023-06-14T12:10:31;5.97;;;5.32;;
68178;SDS011;69812;42.632;23.440;2023-06-14T12:13:04;10.88;;;5.82;;
68178;SDS011;69812;42.632;23.440;2023-06-14T12:15:33;7.18;;;5.22;;
68178;SDS011;69812;42.632;23.440;2023-06-14T12:17:59;5.93;;;5.28;;
68178;SDS011;69812;42.632;23.440;2023-06-14T12:20:28;7.00;;;5.13;;
68178;SDS011;69812;42.632;23.440;2023-06-14T12:22:56;7.80;;;5.32;;
68178;SDS011;69812;42.632;23.440;2023-06-14T12:25:26;6.45;;;5.47;;
68178;SDS011;69812;42.632;23.440;2023-06-14T12:27:57;7.35;;;5.55;;
68178;SDS011;69812;42.632;23.440;2023-06-14T12:30:32;7.45;;;5.28;;
68178;SDS011;69812;42.632;23.440;2023-06-14T12:33:13;7.45;;;5.45;;
68178;SDS011;69812;42.632;23.440;2023-06-14T12:35:39;7.65;;;4.95;;
68178;SDS011;69812;42.632;23.440;2023-06-14T12:38:05;6.45;;;4.85;;
68178;SDS011;69812;42.632;23.440;2023-06-14T12:40:30;5.95;;;5.35;;
68178;SDS011;69812;42.632;23.440;2023-06-14T12:43:15;6.63;;;5.40;;
68178;SDS011;69812;42.632;23.440;2023-06-14T12:45:40;6.88;;;5.85;;
68178;SDS011;69812;42.632;23.440;2023-06-14T12:48:21;6.85;;;6.13;;
68178;SDS011;69812;42.632;23.440;2023-06-14T12:50:49;8.35;;;5.35;;
68178;SDS011;69812;42.632;23.440;2023-06-14T12:53:14;8.00;;;6.05;;
68178;SDS011;69812;42.632;23.440;2023-06-14T12:55:40;11.35;;;7.07;;
68178;SDS011;69812;42.632;23.440;2023-06-14T12:58:14;11.30;;;6.70;;
68178;SDS011;69812;42.632;23.440;2023-06-14T13:00:42;11.88;;;7.53;;
68178;SDS011;69812;42.632;23.440;2023-06-14T13:03:07;12.00;;;7.47;;
68178;SDS011;69812;42.632;23.440;2023-06-14T13:05:35;11.02;;;8.32;;
68178;SDS011;69812;42.632;23.440;2023-06-14T13:08:02;14.63;;;8.40;;
68178;SDS011;69812;42.632;23.440;2023-06-14T13:10:27;17.40;;;8.30;;
68178;SDS011;69812;42.632;23.440;2023-06-14T13:12:53;15.20;;;7.80;;
68178;SDS011;69812;42.632;23.440;2023-06-14T13:15:33;14.73;;;8.57;;
68178;SDS011;69812;42.632;23.440;2023-06-14T13:17:58;13.02;;;8.95;;
68178;SDS011;69812;42.632;23.440;2023-06-14T13:20:26;13.43;;;8.85;;
68178;SDS011;69812;42.632;23.440;2023-06-14T13:22:51;13.55;;;7.65;;
68178;SDS011;69812;42.632;23.440;2023-06-14T13:25:17;13.10;;;7.10;;
68178;SDS011;69812;42.632;23.440;2023-06-14T13:27:42;10.88;;;7.90;;
68178;SDS011;69812;42.632;23.440;2023-06-14T13:30:08;11.07;;;7.40;;
68178;SDS011;69812;42.632;23.440;2023-06-14T13:32:34;13.65;;;6.82;;
68178;SDS011;69812;42.632;23.440;2023-06-14T13:34:59;12.43;;;8.05;;
68178;SDS011;69812;42.632;23.440;2023-06-14T13:37:25;11.25;;;7.65;;
68178;SDS011;69812;42.632;23.440;2023-06-14T13:39:57;13.27;;;8.63;;
68178;SDS011;69812;42.632;23.440;2023-06-14T13:42:24;10.70;;;7.20;;
68178;SDS011;69812;42.632;23.440;2023-06-14T13:44:58;12.45;;;8.48;;
68178;SDS011;69812;42.632;23.440;2023-06-14T13:47:24;11.55;;;6.13;;
68178;SDS011;69812;42.632;23.440;2023-06-14T13:49:49;13.57;;;5.88;;
68178;SDS011;69812;42.632;23.440;2023-06-14T13:52:14;11.77;;;6.18;;
68178;SDS011;69812;42.632;23.440;2023-06-14T13:54:47;9.77;;;7.28;;
68178;SDS011;69812;42.632;23.440;2023-06-14T13:57:22;10.48;;;7.00;;
68178;SDS011;69812;42.632;23.440;2023-06-14T13:59:47;10.98;;;6.95;;
68178;SDS011;69812;42.632;23.440;2023-06-14T14:02:13;10.45;;;6.28;;
68178;SDS011;69812;42.632;23.440;2023-06-14T14:04:46;10.93;;;6.30;;
68178;SDS011;69812;42.632;23.440;2023-06-14T14:07:17;9.65;;;6.32;;
68178;SDS011;69812;42.632;23.440;2023-06-14T14:09:43;11.90;;;6.63;;
68178;SDS011;69812;42.632;23.440;2023-06-14T14:12:09;10.07;;;6.80;;
68178;SDS011;69812;42.632;23.440;2023-06-14T14:14:35;9.93;;;6.15;;
68178;SDS011;69812;42.632;23.440;2023-06-14T14:17:00;9.48;;;6.28;;
68178;SDS011;69812;42.632;23.440;2023-06-14T14:19:26;9.85;;;6.03;;
68178;SDS011;69812;42.632;23.440;2023-06-14T14:21:54;9.40;;;6.30;;
68178;SDS011;69812;42.632;23.440;2023-06-14T14:24:25;9.10;;;6.28;;
68178;SDS011;69812;42.632;23.440;2023-06-14T14:26:53;9.35;;;6.57;;
68178;SDS011;69812;42.632;23.440;2023-06-14T14:29:19;8.40;;;5.68;;
68178;SDS011;69812;42.632;23.440;2023-06-14T14:31:45;9.15;;;6.15;;
68178;SDS011;69812;42.632;23.440;2023-06-14T14:34:24;9.15;;;5.32;;
68178;SDS011;69812;42.632;23.440;2023-06-14T14:39:15;13.13;;;6.88;;
68178;SDS011;69812;42.632;23.440;2023-06-14T14:41:41;11.55;;;7.60;;
68178;SDS011;69812;42.632;23.440;2023-06-14T14:44:06;11.38;;;7.85;;
68178;SDS011;69812;42.632;23.440;2023-06-14T14:46:32;13.15;;;8.15;;
68178;SDS011;69812;42.632;23.440;2023-06-14T14:49:06;14.70;;;7.65;;
68178;SDS011;69812;42.632;23.440;2023-06-14T14:51:34;12.23;;;6.95;;
68178;SDS011;69812;42.632;23.440;2023-06-14T14:54:00;12.63;;;7.20;;
68178;SDS011;69812;42.632;23.440;2023-06-14T14:56:25;11.30;;;7.18;;
68178;SDS011;69812;42.632;23.440;2023-06-14T14:58:50;14.27;;;7.10;;
68178;SDS011;69812;42.632;23.440;2023-06-14T15:01:17;13.80;;;7.28;;
68178;SDS011;69812;42.632;23.440;2023-06-14T15:03:43;15.40;;;7.05;;
68178;SDS011;69812;42.632;23.440;2023-06-14T15:06:08;13.02;;;7.35;;
68178;SDS011;69812;42.632;23.440;2023-06-14T15:08:33;15.02;;;7.88;;
68178;SDS011;69812;42.632;23.440;2023-06-14T15:10:59;13.25;;;7.15;;
68178;SDS011;69812;42.632;23.440;2023-06-14T15:13:25;12.95;;;8.20;;